Main page
METAR-TAF:

METAR-TAF

Airports :

Curaçao International Airport

Curaçao, Netherlands Antilles

latitude: 12-12N, longitude: 068-58W, elevation: 9 m

Current weather observation

The report was made 34 minutes ago, at 11:00 UTC
Wind 15 kt from the East
Temperature 29°C
Humidity 79%
Pressure 1014 hPa
Visibility 10 km or more
Scattered clouds at a height of 1900 ft

METAR: TNCC 291100Z 10015KT 9999 SCT019 29/25 Q1014 NOSIG

Time: 07:34 (11:34 UTC)

Forecast

The report was made 6 hours and 19 minutes ago, at 05:15 UTC
Forecast valid from 29 at 06 UTC to 30 at 06 UTC
Wind 13 kt from the East
Visibility 10 km or more
Scattered clouds at a height of 2000 ft

TAF: TNCC 290515Z 2906/3006 10013KT 9999 SCT020

Weather observations and forecasts of more than 4000 airports (METAR and TAF reports).

The available stations are represented by yellow and red dots on the map.

Hover mouse over dot to see the name of the station.

Then click to see weather observations and forecasts.

To change the map : click on the green buttons with a black cross to zoom in, on the green button with a dash to zoom out, or on the green arrows for adjacent maps.


METAR-TAF: